Airfield :
LOGIN :

Register | Disclaimer

   EN    FR    IT 

 










Legend :    VFR   Marginal VFR   IFR   Intensive IFR   Very Intensive IFR
Visi :
Ceiling :
>= 8 km
>= 3000ft
5 to 8 km
1000 to 3000 ft
1500m to 5 km
500 to 1000 ft
800 to 1500m
200 to 500 ft
< 800m
< 200 ft
Symbols :   Thunderstorms  Fog  Heavy snow  Heavy precipitations  Wind > 20 kt
SIGMETs :     Misc.  Thunderstorms  Icing  Turbulence  Mountain Waves  Volcanic Ashes






- Airport Elevation : 74 ft
- IATA code : EIN


EHEH - Eindhoven

CURRENT METAR :
  • 110355Z AUTO 19002KT 9999 FEW074 OVC098 12/09 Q1008 BLU

EXPIRED METARs :
  • 110325Z AUTO 16003KT 150V220 9999 FEW079 OVC096 12/09 Q1008 BLU
  • 110255Z AUTO 14003KT 9999 BKN097 OVC100 12/09 Q1008 BLU
  • 110225Z AUTO 16003KT 9999 OVC094 12/09 Q1008 BLU
  • 110155Z AUTO VRB01KT 9999 BKN092 OVC098 11/09 Q1008 BLU
  • 110125Z AUTO 21001KT 9999 FEW064 SCT075 BKN091 13/09 Q1008 BLU

TAF TAF EHEH
Valid from the 11 at 00:00 until the 12 at 06:00 UTC


102312Z 1100/1206 VRB02KT CAVOK
PROB30 1102/1106 4000 BR MIFG
TEMPO 1110/1120 VRB05G15KT 4500 -SHRA SCT025CB
PROB30
TEMPO 1112/1120 3000 TSRA SCT024CB
BECMG 1120/1122 25007KT



MET'MAP, your aeronautical weather chart ! - Copyright ORBIFLY December 2007 - Disclaimer

ORBIFLY MET'MAP TEAM :

Programming & Development : Alexandra Zaïnal
Concept & original design : Baudouin d'Aumeries
Assistance for programming : Marc-Olivier Méhu
Technical & hardware support : Manuel Goepfert

Contact : metmap@orbifly.com




SOURCES & CREDITS :

   NOAA